Liverpool Whitlam Centre, New South Wales

2:02 AM AEST on September 26, 2016 (GMT +1000)
Moorebank | | Change Station

Elev 66 ft 33.93 °S, 150.95 °E | Updated 12 seconds ago

Partly Cloudy
Partly Cloudy
52.9 °F
Feels Like 52.9 °F
N
0.0
Wind Variable Wind from WNW
Gusts 0.0 mph

Today
High -- | Low -- °F
--% Chance of Precip.
Yesterday
High -- | Low -- °F
Precip. -- in
Pressure 29.86 in
Visibility 6.2 miles
Clouds Few 1800 ft
Dew Point 50 °F
Humidity 91%
Rainfall 0.00 in
Snow Depth Not available.
5:40 AM 5:55 PM
Waning Crescent, 27% visible
METAR YSSY 251530Z 21010KT 9999 FEW018 14/12 Q1011 NOSIG
Pressure 29.86 in
Visibility 6.2 miles
Clouds Few 1800 ft
Dew Point 50 °F
Humidity 91%
Rainfall 0.00 in
Snow Depth Not available.
5:40 AM 5:55 PM
Waning Crescent, 27% visible
METAR YSSY 251530Z 21010KT 9999 FEW018 14/12 Q1011 NOSIG

10-Day Weather Forecast

Almanac

Astronomy

Sep. 26, 2016 Rise Set
Actual Time
Civil Twilight
Nautical Twilight
Astronomical Twilight
Moon
Length of Visible Light
Length of Day
Tomorrow will be .
, % of the Moon is Illuminated

Today's Extremes

Country Highs Country Lows

Community

WunderPhotos

Upload Photos

1,941,649 photos uploaded!

WunderBlog® & News

Nearby

Air Quality

  Air Quality AQ Index Pollutant
Not available.

Snow Depth

Station Depth Elevation

Earthquake Activity

City Distance Mag. Time & Date
Minimum magnitude displayed is 2.5.

Coastal Water Temperatures

Place Temperature

Stations

Nearby Weather Stations

Station Location Temp. Windchill Dew Point Humidity Wind Precip. Elev Updated Type